sensor_id;sensor_type;location;lat;lon;timestamp;pressure;altitude;pressure_sealevel;temperature;humidity
75604;BME280;64187;51.010;13.792;2023-07-29T00:54:22;99623.88;;;19.44;85.48
75604;BME280;64187;51.010;13.792;2023-07-29T00:59:22;99620.63;;;19.42;86.03
75604;BME280;64187;51.010;13.792;2023-07-29T01:04:21;99618.59;;;19.65;84.67
75604;BME280;64187;51.010;13.792;2023-07-29T01:20:02;99616.28;;;19.41;85.35
75604;BME280;64187;51.010;13.792;2023-07-29T02:31:13;99603.00;;;18.40;92.10
75604;BME280;64187;51.010;13.792;2023-07-29T02:36:13;99603.63;;;18.37;92.94
75604;BME280;64187;51.010;13.792;2023-07-29T02:46:40;99616.03;;;18.35;92.88
75604;BME280;64187;51.010;13.792;2023-07-29T02:57:14;99625.06;;;18.80;89.32
75604;BME280;64187;51.010;13.792;2023-07-29T03:24:04;99646.47;;;18.56;91.23
75604;BME280;64187;51.010;13.792;2023-07-29T03:29:04;99641.94;;;18.73;90.34
75604;BME280;64187;51.010;13.792;2023-07-29T03:50:28;99618.00;;;18.65;91.15
75604;BME280;64187;51.010;13.792;2023-07-29T04:06:32;99614.78;;;18.86;91.04
75604;BME280;64187;51.010;13.792;2023-07-29T04:11:32;99616.25;;;18.92;90.58
75604;BME280;64187;51.010;13.792;2023-07-29T04:16:31;99620.38;;;19.12;88.83
75604;BME280;64187;51.010;13.792;2023-07-29T04:32:44;99624.94;;;19.74;84.42
75604;BME280;64187;51.010;13.792;2023-07-29T04:37:43;99628.19;;;19.85;83.77
75604;BME280;64187;51.010;13.792;2023-07-29T05:16:40;99616.22;;;20.59;78.90
75604;BME280;64187;51.010;13.792;2023-07-29T05:38:25;99603.63;;;21.43;73.63
75604;BME280;64187;51.010;13.792;2023-07-29T06:16:12;99562.69;;;23.70;63.26
75604;BME280;64187;51.010;13.792;2023-07-29T06:32:21;99574.97;;;23.97;61.01
75604;BME280;64187;51.010;13.792;2023-07-29T06:37:20;99579.50;;;23.77;61.97
75604;BME280;64187;51.010;13.792;2023-07-29T07:43:43;99538.13;;;25.12;54.57
75604;BME280;64187;51.010;13.792;2023-07-29T07:48:42;99540.16;;;25.31;53.84
75604;BME280;64187;51.010;13.792;2023-07-29T08:10:57;99512.06;;;24.50;55.95
75604;BME280;64187;51.010;13.792;2023-07-29T08:15:56;99519.00;;;24.91;53.02
75604;BME280;64187;51.010;13.792;2023-07-29T08:20:57;99512.41;;;24.96;54.46
75604;BME280;64187;51.010;13.792;2023-07-29T08:26:04;99516.25;;;24.91;53.53
75604;BME280;64187;51.010;13.792;2023-07-29T08:37:12;99509.72;;;24.84;54.22
75604;BME280;64187;51.010;13.792;2023-07-29T08:42:38;99513.28;;;24.84;53.33
75604;BME280;64187;51.010;13.792;2023-07-29T08:47:38;99506.59;;;25.01;53.91
75604;BME280;64187;51.010;13.792;2023-07-29T08:52:37;99504.91;;;25.48;50.54
75604;BME280;64187;51.010;13.792;2023-07-29T08:57:37;99510.63;;;25.20;52.12
75604;BME280;64187;51.010;13.792;2023-07-29T09:02:36;99516.28;;;25.43;53.17
75604;BME280;64187;51.010;13.792;2023-07-29T09:07:36;99501.97;;;25.41;52.56
75604;BME280;64187;51.010;13.792;2023-07-29T09:12:35;99505.78;;;25.52;52.92
75604;BME280;64187;51.010;13.792;2023-07-29T09:17:34;99510.72;;;25.43;52.32
75604;BME280;64187;51.010;13.792;2023-07-29T09:22:34;99512.13;;;25.52;51.68
75604;BME280;64187;51.010;13.792;2023-07-29T09:27:33;99506.22;;;25.73;52.45
75604;BME280;64187;51.010;13.792;2023-07-29T09:32:39;99503.16;;;25.78;52.09
75604;BME280;64187;51.010;13.792;2023-07-29T09:37:38;99495.59;;;26.14;52.77
75604;BME280;64187;51.010;13.792;2023-07-29T09:42:37;99491.94;;;26.10;51.77
75604;BME280;64187;51.010;13.792;2023-07-29T09:47:36;99490.06;;;25.95;50.72
75604;BME280;64187;51.010;13.792;2023-07-29T09:52:35;99493.47;;;26.08;51.36
75604;BME280;64187;51.010;13.792;2023-07-29T09:57:34;99493.94;;;25.90;51.19
75604;BME280;64187;51.010;13.792;2023-07-29T10:02:34;99500.63;;;25.70;50.44
75604;BME280;64187;51.010;13.792;2023-07-29T10:07:37;99517.47;;;25.10;56.69
75604;BME280;64187;51.010;13.792;2023-07-29T10:12:36;99517.66;;;23.69;66.95
75604;BME280;64187;51.010;13.792;2023-07-29T10:17:37;99519.50;;;23.00;70.38
75604;BME280;64187;51.010;13.792;2023-07-29T10:22:38;99504.88;;;22.75;76.37
75604;BME280;64187;51.010;13.792;2023-07-29T10:27:59;99486.47;;;23.28;77.71
75604;BME280;64187;51.010;13.792;2023-07-29T10:33:04;99482.00;;;23.64;70.64
75604;BME280;64187;51.010;13.792;2023-07-29T10:38:05;99473.06;;;24.11;72.20
75604;BME280;64187;51.010;13.792;2023-07-29T10:43:11;99487.09;;;24.34;72.59
75604;BME280;64187;51.010;13.792;2023-07-29T10:48:12;99484.13;;;24.55;68.08
75604;BME280;64187;51.010;13.792;2023-07-29T10:53:11;99482.13;;;24.71;69.16
75604;BME280;64187;51.010;13.792;2023-07-29T10:58:15;99488.13;;;24.74;70.72
75604;BME280;64187;51.010;13.792;2023-07-29T11:03:17;99494.88;;;24.44;73.40
75604;BME280;64187;51.010;13.792;2023-07-29T11:08:34;99483.78;;;24.13;63.10
75604;BME280;64187;51.010;13.792;2023-07-29T11:13:35;99475.69;;;24.20;63.28
75604;BME280;64187;51.010;13.792;2023-07-29T11:18:38;99475.75;;;24.23;63.81
75604;BME280;64187;51.010;13.792;2023-07-29T11:23:38;99467.97;;;24.57;63.94
75604;BME280;64187;51.010;13.792;2023-07-29T11:28:39;99462.34;;;24.69;60.90
75604;BME280;64187;51.010;13.792;2023-07-29T11:33:39;99478.75;;;24.46;62.28
75604;BME280;64187;51.010;13.792;2023-07-29T11:38:39;99472.69;;;24.57;61.30
75604;BME280;64187;51.010;13.792;2023-07-29T11:43:38;99472.59;;;24.85;61.14
75604;BME280;64187;51.010;13.792;2023-07-29T11:48:37;99460.75;;;25.04;61.00
75604;BME280;64187;51.010;13.792;2023-07-29T11:53:36;99460.06;;;24.91;60.64
75604;BME280;64187;51.010;13.792;2023-07-29T11:58:36;99459.72;;;24.77;61.32
75604;BME280;64187;51.010;13.792;2023-07-29T12:03:36;99457.59;;;24.54;64.32
75604;BME280;64187;51.010;13.792;2023-07-29T12:08:35;99443.41;;;24.40;62.79
75604;BME280;64187;51.010;13.792;2023-07-29T12:13:35;99439.41;;;24.53;65.04
75604;BME280;64187;51.010;13.792;2023-07-29T12:18:36;99432.09;;;24.96;62.41
75604;BME280;64187;51.010;13.792;2023-07-29T12:23:35;99438.72;;;24.91;56.63
75604;BME280;64187;51.010;13.792;2023-07-29T12:28:34;99437.69;;;24.80;54.78
75604;BME280;64187;51.010;13.792;2023-07-29T12:33:35;99431.88;;;24.85;54.55
75604;BME280;64187;51.010;13.792;2023-07-29T12:38:35;99423.28;;;24.90;55.07
75604;BME280;64187;51.010;13.792;2023-07-29T12:43:34;99416.69;;;25.14;55.45
75604;BME280;64187;51.010;13.792;2023-07-29T12:48:33;99409.50;;;25.49;54.47
75604;BME280;64187;51.010;13.792;2023-07-29T12:53:32;99413.00;;;25.65;54.40
75604;BME280;64187;51.010;13.792;2023-07-29T12:58:31;99409.16;;;25.70;54.20
75604;BME280;64187;51.010;13.792;2023-07-29T13:03:30;99392.09;;;26.10;54.13
75604;BME280;64187;51.010;13.792;2023-07-29T13:08:30;99384.94;;;26.32;53.68
75604;BME280;64187;51.010;13.792;2023-07-29T13:13:29;99382.63;;;26.38;54.48
75604;BME280;64187;51.010;13.792;2023-07-29T13:18:28;99388.81;;;26.28;52.65
75604;BME280;64187;51.010;13.792;2023-07-29T13:23:27;99382.69;;;26.18;55.26
75604;BME280;64187;51.010;13.792;2023-07-29T13:28:28;99383.16;;;25.97;53.42
75604;BME280;64187;51.010;13.792;2023-07-29T13:33:27;99384.47;;;25.84;52.79
75604;BME280;64187;51.010;13.792;2023-07-29T13:38:28;99376.50;;;25.83;55.65
75604;BME280;64187;51.010;13.792;2023-07-29T13:43:27;99378.69;;;25.93;53.10
75604;BME280;64187;51.010;13.792;2023-07-29T13:48:26;99384.06;;;26.05;51.30
75604;BME280;64187;51.010;13.792;2023-07-29T13:53:25;99377.09;;;26.61;50.93
75604;BME280;64187;51.010;13.792;2023-07-29T13:58:27;99382.56;;;26.57;47.12
75604;BME280;64187;51.010;13.792;2023-07-29T14:03:26;99395.72;;;26.87;48.02
75604;BME280;64187;51.010;13.792;2023-07-29T14:08:25;99398.13;;;26.62;47.25
75604;BME280;64187;51.010;13.792;2023-07-29T14:13:23;99384.47;;;26.53;46.75
75604;BME280;64187;51.010;13.792;2023-07-29T14:18:22;99372.91;;;26.74;45.77
75604;BME280;64187;51.010;13.792;2023-07-29T14:23:21;99363.94;;;26.58;46.70
75604;BME280;64187;51.010;13.792;2023-07-29T14:28:20;99356.25;;;26.74;43.63
75604;BME280;64187;51.010;13.792;2023-07-29T14:33:23;99362.25;;;26.27;45.21
75604;BME280;64187;51.010;13.792;2023-07-29T14:38:25;99359.19;;;26.35;45.94
75604;BME280;64187;51.010;13.792;2023-07-29T14:43:24;99345.25;;;26.81;45.91
75604;BME280;64187;51.010;13.792;2023-07-29T14:48:28;99346.03;;;27.12;43.18
75604;BME280;64187;51.010;13.792;2023-07-29T14:53:29;99340.97;;;26.88;43.78
75604;BME280;64187;51.010;13.792;2023-07-29T14:58:33;99343.69;;;27.14;43.43
75604;BME280;64187;51.010;13.792;2023-07-29T15:03:36;99335.91;;;27.23;41.63
75604;BME280;64187;51.010;13.792;2023-07-29T15:08:35;99342.28;;;27.27;42.04
75604;BME280;64187;51.010;13.792;2023-07-29T15:13:34;99336.00;;;27.34;41.05
75604;BME280;64187;51.010;13.792;2023-07-29T15:18:33;99324.94;;;27.38;40.64
75604;BME280;64187;51.010;13.792;2023-07-29T15:23:32;99334.44;;;27.33;40.62
75604;BME280;64187;51.010;13.792;2023-07-29T15:28:31;99328.00;;;27.25;40.88
75604;BME280;64187;51.010;13.792;2023-07-29T15:33:30;99318.63;;;27.41;40.93
75604;BME280;64187;51.010;13.792;2023-07-29T15:38:29;99314.66;;;27.42;41.19
75604;BME280;64187;51.010;13.792;2023-07-29T15:43:28;99323.44;;;27.47;41.39
75604;BME280;64187;51.010;13.792;2023-07-29T15:48:27;99336.03;;;27.38;42.15
75604;BME280;64187;51.010;13.792;2023-07-29T15:53:26;99328.69;;;27.19;42.57
75604;BME280;64187;51.010;13.792;2023-07-29T15:58:25;99341.94;;;27.02;42.34
75604;BME280;64187;51.010;13.792;2023-07-29T16:03:24;99347.28;;;26.84;44.14
75604;BME280;64187;51.010;13.792;2023-07-29T16:08:24;99351.25;;;26.57;44.92
75604;BME280;64187;51.010;13.792;2023-07-29T16:13:23;99361.53;;;26.33;44.65
75604;BME280;64187;51.010;13.792;2023-07-29T16:18:21;99367.00;;;26.26;44.64
75604;BME280;64187;51.010;13.792;2023-07-29T16:23:20;99369.59;;;25.92;45.54
75604;BME280;64187;51.010;13.792;2023-07-29T16:28:19;99378.09;;;25.84;46.30
75604;BME280;64187;51.010;13.792;2023-07-29T16:33:18;99379.69;;;25.62;46.74
75604;BME280;64187;51.010;13.792;2023-07-29T16:38:17;99391.78;;;25.34;47.91
75604;BME280;64187;51.010;13.792;2023-07-29T16:43:16;99417.91;;;25.33;48.32
75604;BME280;64187;51.010;13.792;2023-07-29T16:48:15;99504.13;;;24.80;49.68
75604;BME280;64187;51.010;13.792;2023-07-29T16:53:14;99548.50;;;23.06;53.37
75604;BME280;64187;51.010;13.792;2023-07-29T16:58:12;99578.53;;;21.45;58.63
75604;BME280;64187;51.010;13.792;2023-07-29T17:03:11;99562.31;;;20.75;62.81
75604;BME280;64187;51.010;13.792;2023-07-29T17:08:10;99555.50;;;20.81;70.33
75604;BME280;64187;51.010;13.792;2023-07-29T17:13:09;99558.38;;;20.20;73.93
75604;BME280;64187;51.010;13.792;2023-07-29T17:18:08;99553.38;;;20.05;77.41
75604;BME280;64187;51.010;13.792;2023-07-29T17:23:07;99553.38;;;19.96;80.70
75604;BME280;64187;51.010;13.792;2023-07-29T17:28:06;99522.03;;;19.97;80.28
75604;BME280;64187;51.010;13.792;2023-07-29T17:33:05;99544.94;;;19.49;82.72
75604;BME280;64187;51.010;13.792;2023-07-29T17:38:04;99568.34;;;19.38;86.77
75604;BME280;64187;51.010;13.792;2023-07-29T17:43:10;99571.25;;;19.50;84.81
75604;BME280;64187;51.010;13.792;2023-07-29T17:48:09;99584.25;;;19.27;86.05
75604;BME280;64187;51.010;13.792;2023-07-29T17:53:08;99573.09;;;19.15;89.90
75604;BME280;64187;51.010;13.792;2023-07-29T17:58:07;99580.88;;;19.22;91.38
75604;BME280;64187;51.010;13.792;2023-07-29T18:03:06;99567.69;;;19.50;86.69
75604;BME280;64187;51.010;13.792;2023-07-29T18:08:05;99578.41;;;19.69;86.98
75604;BME280;64187;51.010;13.792;2023-07-29T18:13:04;99566.09;;;19.49;89.93
75604;BME280;64187;51.010;13.792;2023-07-29T18:18:06;99578.91;;;19.22;92.12
75604;BME280;64187;51.010;13.792;2023-07-29T18:23:05;99572.06;;;18.93;92.70
75604;BME280;64187;51.010;13.792;2023-07-29T18:28:04;99577.63;;;18.80;92.20
75604;BME280;64187;51.010;13.792;2023-07-29T18:33:03;99588.59;;;19.11;89.61
75604;BME280;64187;51.010;13.792;2023-07-29T18:38:02;99589.47;;;18.98;91.82
75604;BME280;64187;51.010;13.792;2023-07-29T18:43:00;99584.63;;;18.94;90.83
75604;BME280;64187;51.010;13.792;2023-07-29T18:47:59;99581.59;;;19.05;91.36
75604;BME280;64187;51.010;13.792;2023-07-29T18:52:58;99575.22;;;18.78;93.42
75604;BME280;64187;51.010;13.792;2023-07-29T18:57:57;99573.78;;;18.58;94.92
75604;BME280;64187;51.010;13.792;2023-07-29T19:02:56;99582.13;;;18.53;95.21
75604;BME280;64187;51.010;13.792;2023-07-29T19:07:55;99582.63;;;18.55;95.35
75604;BME280;64187;51.010;13.792;2023-07-29T19:12:54;99565.56;;;18.36;98.49
75604;BME280;64187;51.010;13.792;2023-07-29T19:17:55;99565.50;;;18.49;97.04
75604;BME280;64187;51.010;13.792;2023-07-29T19:22:54;99562.47;;;18.51;95.32
75604;BME280;64187;51.010;13.792;2023-07-29T19:27:53;99571.22;;;18.62;92.11
75604;BME280;64187;51.010;13.792;2023-07-29T19:32:52;99577.47;;;18.54;91.88
75604;BME280;64187;51.010;13.792;2023-07-29T19:37:51;99566.00;;;18.51;92.13
75604;BME280;64187;51.010;13.792;2023-07-29T19:42:56;99579.03;;;18.23;92.58
75604;BME280;64187;51.010;13.792;2023-07-29T19:47:54;99576.25;;;18.15;94.94
75604;BME280;64187;51.010;13.792;2023-07-29T19:52:55;99583.16;;;18.12;95.47
75604;BME280;64187;51.010;13.792;2023-07-29T19:57:54;99585.59;;;18.36;92.50
75604;BME280;64187;51.010;13.792;2023-07-29T20:02:53;99589.44;;;18.13;92.74
75604;BME280;64187;51.010;13.792;2023-07-29T20:07:52;99605.19;;;18.07;92.25
75604;BME280;64187;51.010;13.792;2023-07-29T20:12:51;99600.41;;;18.35;87.01
75604;BME280;64187;51.010;13.792;2023-07-29T20:17:50;99602.50;;;18.16;90.67
75604;BME280;64187;51.010;13.792;2023-07-29T20:22:49;99605.66;;;17.86;92.94
75604;BME280;64187;51.010;13.792;2023-07-29T20:27:48;99603.16;;;17.62;93.52
75604;BME280;64187;51.010;13.792;2023-07-29T20:32:47;99608.16;;;17.47;96.19
75604;BME280;64187;51.010;13.792;2023-07-29T20:37:46;99614.94;;;17.49;93.48
75604;BME280;64187;51.010;13.792;2023-07-29T20:42:45;99612.19;;;17.49;94.51
75604;BME280;64187;51.010;13.792;2023-07-29T20:47:43;99617.56;;;17.54;92.79
75604;BME280;64187;51.010;13.792;2023-07-29T20:52:42;99624.56;;;17.33;92.52
75604;BME280;64187;51.010;13.792;2023-07-29T20:57:41;99640.16;;;17.32;94.30
75604;BME280;64187;51.010;13.792;2023-07-29T21:02:44;99631.94;;;17.18;96.08
75604;BME280;64187;51.010;13.792;2023-07-29T21:07:43;99635.50;;;17.47;93.13
75604;BME280;64187;51.010;13.792;2023-07-29T21:12:42;99630.00;;;17.74;91.13
75604;BME280;64187;51.010;13.792;2023-07-29T21:17:40;99633.25;;;17.49;94.39
75604;BME280;64187;51.010;13.792;2023-07-29T21:22:39;99641.38;;;17.26;94.60
75604;BME280;64187;51.010;13.792;2023-07-29T21:27:38;99645.31;;;17.48;93.27
75604;BME280;64187;51.010;13.792;2023-07-29T21:32:37;99639.34;;;17.46;93.67
75604;BME280;64187;51.010;13.792;2023-07-29T21:37:36;99636.72;;;17.40;92.27
75604;BME280;64187;51.010;13.792;2023-07-29T21:42:35;99632.66;;;17.10;95.57
75604;BME280;64187;51.010;13.792;2023-07-29T21:47:34;99639.34;;;17.32;93.52
75604;BME280;64187;51.010;13.792;2023-07-29T21:52:34;99638.84;;;17.02;96.48
75604;BME280;64187;51.010;13.792;2023-07-29T21:57:33;99635.78;;;16.90;97.74
75604;BME280;64187;51.010;13.792;2023-07-29T22:02:32;99630.50;;;16.93;96.59
75604;BME280;64187;51.010;13.792;2023-07-29T22:07:31;99635.13;;;16.79;97.62
75604;BME280;64187;51.010;13.792;2023-07-29T22:12:30;99633.22;;;16.79;99.34
75604;BME280;64187;51.010;13.792;2023-07-29T22:17:30;99634.94;;;16.56;99.79
75604;BME280;64187;51.010;13.792;2023-07-29T22:22:29;99646.22;;;16.69;99.07
75604;BME280;64187;51.010;13.792;2023-07-29T22:27:27;99647.00;;;16.88;97.42
75604;BME280;64187;51.010;13.792;2023-07-29T22:32:26;99649.69;;;16.74;98.54
75604;BME280;64187;51.010;13.792;2023-07-29T22:37:26;99661.88;;;16.82;98.44
75604;BME280;64187;51.010;13.792;2023-07-29T22:42:24;99654.69;;;16.86;98.46
75604;BME280;64187;51.010;13.792;2023-07-29T22:47:23;99654.13;;;17.03;94.82
75604;BME280;64187;51.010;13.792;2023-07-29T22:52:22;99662.22;;;16.94;95.43
75604;BME280;64187;51.010;13.792;2023-07-29T22:57:21;99656.66;;;16.99;96.21
75604;BME280;64187;51.010;13.792;2023-07-29T23:02:20;99671.75;;;17.11;95.04
75604;BME280;64187;51.010;13.792;2023-07-29T23:07:19;99668.00;;;17.20;92.93
75604;BME280;64187;51.010;13.792;2023-07-29T23:12:18;99674.81;;;17.09;93.44
75604;BME280;64187;51.010;13.792;2023-07-29T23:17:17;99681.84;;;16.96;94.18
75604;BME280;64187;51.010;13.792;2023-07-29T23:22:16;99678.19;;;16.87;96.66
75604;BME280;64187;51.010;13.792;2023-07-29T23:27:15;99682.34;;;16.85;95.15
75604;BME280;64187;51.010;13.792;2023-07-29T23:32:14;99686.22;;;16.46;98.52
75604;BME280;64187;51.010;13.792;2023-07-29T23:37:13;99688.66;;;16.47;98.68
75604;BME280;64187;51.010;13.792;2023-07-29T23:42:12;99675.56;;;16.82;96.33
75604;BME280;64187;51.010;13.792;2023-07-29T23:47:11;99679.00;;;16.69;96.42
75604;BME280;64187;51.010;13.792;2023-07-29T23:52:10;99684.09;;;16.75;96.06
75604;BME280;64187;51.010;13.792;2023-07-29T23:57:09;99678.78;;;16.84;93.41
